sensor_id;sensor_type;location;lat;lon;timestamp;pressure;altitude;pressure_sealevel;temperature
32039;BMP280;18549;42.286;22.688;2024-03-06T00:00:17;95359.00;;;10.81
32039;BMP280;18549;42.286;22.688;2024-03-06T00:02:44;95360.53;;;10.71
32039;BMP280;18549;42.286;22.688;2024-03-06T00:05:12;95365.50;;;10.71
32039;BMP280;18549;42.286;22.688;2024-03-06T00:07:39;95365.59;;;10.70
32039;BMP280;18549;42.286;22.688;2024-03-06T00:10:06;95368.84;;;10.70
32039;BMP280;18549;42.286;22.688;2024-03-06T00:12:33;95370.34;;;10.73
32039;BMP280;18549;42.286;22.688;2024-03-06T00:15:00;95365.81;;;10.67
32039;BMP280;18549;42.286;22.688;2024-03-06T00:17:29;95362.53;;;10.66
32039;BMP280;18549;42.286;22.688;2024-03-06T00:19:55;95375.53;;;10.57
32039;BMP280;18549;42.286;22.688;2024-03-06T00:22:22;95371.84;;;10.63
32039;BMP280;18549;42.286;22.688;2024-03-06T00:24:49;95376.41;;;10.56
32039;BMP280;18549;42.286;22.688;2024-03-06T00:27:16;95371.38;;;10.58
32039;BMP280;18549;42.286;22.688;2024-03-06T00:29:42;95369.81;;;10.57
32039;BMP280;18549;42.286;22.688;2024-03-06T00:32:09;95374.84;;;10.55
32039;BMP280;18549;42.286;22.688;2024-03-06T00:34:37;95383.06;;;10.56
32039;BMP280;18549;42.286;22.688;2024-03-06T00:37:04;95371.59;;;10.55
32039;BMP280;18549;42.286;22.688;2024-03-06T00:39:30;95377.41;;;10.54
32039;BMP280;18549;42.286;22.688;2024-03-06T00:41:57;95372.59;;;10.53
32039;BMP280;18549;42.286;22.688;2024-03-06T00:44:24;95377.25;;;10.45
32039;BMP280;18549;42.286;22.688;2024-03-06T00:46:51;95376.44;;;10.44
32039;BMP280;18549;42.286;22.688;2024-03-06T00:49:17;95371.59;;;10.43
32039;BMP280;18549;42.286;22.688;2024-03-06T00:51:45;95374.78;;;10.32
32039;BMP280;18549;42.286;22.688;2024-03-06T00:54:12;95384.09;;;10.29
32039;BMP280;18549;42.286;22.688;2024-03-06T00:56:39;95396.09;;;10.35
32039;BMP280;18549;42.286;22.688;2024-03-06T00:59:06;95382.78;;;10.36
32039;BMP280;18549;42.286;22.688;2024-03-06T01:01:32;95388.44;;;10.38
32039;BMP280;18549;42.286;22.688;2024-03-06T01:03:59;95385.97;;;10.38
32039;BMP280;18549;42.286;22.688;2024-03-06T01:06:26;95391.91;;;10.35
32039;BMP280;18549;42.286;22.688;2024-03-06T01:08:55;95387.97;;;10.33
32039;BMP280;18549;42.286;22.688;2024-03-06T01:11:22;95394.41;;;10.35
32039;BMP280;18549;42.286;22.688;2024-03-06T01:13:49;95400.13;;;10.36
32039;BMP280;18549;42.286;22.688;2024-03-06T01:16:15;95396.97;;;10.21
32039;BMP280;18549;42.286;22.688;2024-03-06T01:18:42;95406.19;;;10.20
32039;BMP280;18549;42.286;22.688;2024-03-06T01:21:09;95400.25;;;10.22
32039;BMP280;18549;42.286;22.688;2024-03-06T01:23:36;95399.38;;;10.23
32039;BMP280;18549;42.286;22.688;2024-03-06T01:26:04;95401.34;;;10.18
32039;BMP280;18549;42.286;22.688;2024-03-06T01:28:31;95392.25;;;10.19
32039;BMP280;18549;42.286;22.688;2024-03-06T01:30:58;95386.69;;;10.15
32039;BMP280;18549;42.286;22.688;2024-03-06T01:33:25;95396.78;;;10.12
32039;BMP280;18549;42.286;22.688;2024-03-06T01:35:52;95399.47;;;10.09
32039;BMP280;18549;42.286;22.688;2024-03-06T01:38:18;95389.06;;;10.04
32039;BMP280;18549;42.286;22.688;2024-03-06T01:40:45;95399.38;;;9.98
32039;BMP280;18549;42.286;22.688;2024-03-06T01:43:23;95396.41;;;9.93
32039;BMP280;18549;42.286;22.688;2024-03-06T01:45:51;95402.41;;;9.89
32039;BMP280;18549;42.286;22.688;2024-03-06T01:48:21;95389.44;;;9.86
32039;BMP280;18549;42.286;22.688;2024-03-06T01:50:48;95406.22;;;9.81
32039;BMP280;18549;42.286;22.688;2024-03-06T01:53:15;95396.53;;;9.78
32039;BMP280;18549;42.286;22.688;2024-03-06T01:55:43;95403.25;;;9.76
32039;BMP280;18549;42.286;22.688;2024-03-06T01:58:10;95394.34;;;9.74
32039;BMP280;18549;42.286;22.688;2024-03-06T02:00:38;95397.03;;;9.71
32039;BMP280;18549;42.286;22.688;2024-03-06T02:03:05;95399.69;;;9.68
32039;BMP280;18549;42.286;22.688;2024-03-06T02:05:33;95402.84;;;9.70
32039;BMP280;18549;42.286;22.688;2024-03-06T02:07:59;95397.31;;;9.66
32039;BMP280;18549;42.286;22.688;2024-03-06T02:10:27;95394.72;;;9.55
32039;BMP280;18549;42.286;22.688;2024-03-06T02:12:54;95397.87;;;9.45
32039;BMP280;18549;42.286;22.688;2024-03-06T02:15:21;95402.81;;;9.45
32039;BMP280;18549;42.286;22.688;2024-03-06T02:17:49;95403.31;;;9.50
32039;BMP280;18549;42.286;22.688;2024-03-06T02:20:16;95403.31;;;9.50
32039;BMP280;18549;42.286;22.688;2024-03-06T02:22:46;95405.59;;;9.53
32039;BMP280;18549;42.286;22.688;2024-03-06T02:25:12;95409.34;;;9.58
32039;BMP280;18549;42.286;22.688;2024-03-06T02:27:40;95409.34;;;9.58
32039;BMP280;18549;42.286;22.688;2024-03-06T02:30:07;95410.34;;;9.56
32039;BMP280;18549;42.286;22.688;2024-03-06T02:32:34;95414.09;;;9.49
32039;BMP280;18549;42.286;22.688;2024-03-06T02:35:01;95414.19;;;9.48
32039;BMP280;18549;42.286;22.688;2024-03-06T02:37:29;95418.44;;;9.46
32039;BMP280;18549;42.286;22.688;2024-03-06T02:39:57;95421.75;;;9.32
32039;BMP280;18549;42.286;22.688;2024-03-06T02:42:25;95431.97;;;9.14
32039;BMP280;18549;42.286;22.688;2024-03-06T02:44:52;95434.47;;;9.00
32039;BMP280;18549;42.286;22.688;2024-03-06T02:47:19;95434.56;;;8.99
32039;BMP280;18549;42.286;22.688;2024-03-06T02:49:46;95434.56;;;8.99
32039;BMP280;18549;42.286;22.688;2024-03-06T02:52:12;95433.88;;;8.97
32039;BMP280;18549;42.286;22.688;2024-03-06T02:54:40;95443.37;;;9.03
32039;BMP280;18549;42.286;22.688;2024-03-06T02:57:09;95445.28;;;8.86
32039;BMP280;18549;42.286;22.688;2024-03-06T02:59:35;95448.38;;;8.75
32039;BMP280;18549;42.286;22.688;2024-03-06T03:02:02;95441.31;;;8.69
32039;BMP280;18549;42.286;22.688;2024-03-06T03:04:29;95452.72;;;8.72
32039;BMP280;18549;42.286;22.688;2024-03-06T03:06:56;95448.56;;;8.72
32039;BMP280;18549;42.286;22.688;2024-03-06T03:09:22;95455.00;;;8.75
32039;BMP280;18549;42.286;22.688;2024-03-06T03:11:49;95453.84;;;8.66
32039;BMP280;18549;42.286;22.688;2024-03-06T03:14:17;95451.75;;;8.74
32039;BMP280;18549;42.286;22.688;2024-03-06T03:16:44;95449.88;;;8.78
32039;BMP280;18549;42.286;22.688;2024-03-06T03:19:11;95452.28;;;8.79
32039;BMP280;18549;42.286;22.688;2024-03-06T03:21:38;95454.38;;;8.85
32039;BMP280;18549;42.286;22.688;2024-03-06T03:24:05;95458.06;;;8.78
32039;BMP280;18549;42.286;22.688;2024-03-06T03:26:32;95463.41;;;8.72
32039;BMP280;18549;42.286;22.688;2024-03-06T03:28:59;95455.47;;;8.67
32039;BMP280;18549;42.286;22.688;2024-03-06T03:31:27;95465.50;;;8.64
32039;BMP280;18549;42.286;22.688;2024-03-06T03:33:54;95457.22;;;8.65
32039;BMP280;18549;42.286;22.688;2024-03-06T03:36:20;95462.88;;;8.54
32039;BMP280;18549;42.286;22.688;2024-03-06T03:38:47;95464.19;;;8.45
32039;BMP280;18549;42.286;22.688;2024-03-06T03:41:14;95466.56;;;8.47
32039;BMP280;18549;42.286;22.688;2024-03-06T03:43:42;95467.19;;;8.50
32039;BMP280;18549;42.286;22.688;2024-03-06T03:46:08;95468.75;;;8.51
32039;BMP280;18549;42.286;22.688;2024-03-06T03:48:37;95469.22;;;8.57
32039;BMP280;18549;42.286;22.688;2024-03-06T03:51:04;95463.75;;;8.66
32039;BMP280;18549;42.286;22.688;2024-03-06T03:53:32;95470.28;;;8.67
32039;BMP280;18549;42.286;22.688;2024-03-06T03:55:59;95470.09;;;8.56
32039;BMP280;18549;42.286;22.688;2024-03-06T03:58:26;95475.56;;;8.61
32039;BMP280;18549;42.286;22.688;2024-03-06T04:00:52;95477.16;;;8.62
32039;BMP280;18549;42.286;22.688;2024-03-06T04:03:20;95482.78;;;8.64
32039;BMP280;18549;42.286;22.688;2024-03-06T04:05:48;95484.47;;;8.64
32039;BMP280;18549;42.286;22.688;2024-03-06T04:08:15;95482.19;;;8.61
32039;BMP280;18549;42.286;22.688;2024-03-06T04:10:42;95494.34;;;8.64
32039;BMP280;18549;42.286;22.688;2024-03-06T04:13:10;95501.69;;;8.65
32039;BMP280;18549;42.286;22.688;2024-03-06T04:15:37;95498.59;;;8.62
32039;BMP280;18549;42.286;22.688;2024-03-06T04:18:04;95492.94;;;8.60
32039;BMP280;18549;42.286;22.688;2024-03-06T04:20:31;95506.09;;;8.60
32039;BMP280;18549;42.286;22.688;2024-03-06T04:22:59;95504.16;;;8.52
32039;BMP280;18549;42.286;22.688;2024-03-06T04:25:26;95509.94;;;8.37
32039;BMP280;18549;42.286;22.688;2024-03-06T04:27:52;95509.22;;;8.35
32039;BMP280;18549;42.286;22.688;2024-03-06T04:30:19;95513.31;;;8.36
32039;BMP280;18549;42.286;22.688;2024-03-06T04:32:46;95512.53;;;8.35
32039;BMP280;18549;42.286;22.688;2024-03-06T04:35:13;95508.16;;;8.25
32039;BMP280;18549;42.286;22.688;2024-03-06T04:37:40;95513.25;;;8.08
32039;BMP280;18549;42.286;22.688;2024-03-06T04:40:09;95515.66;;;7.94
32039;BMP280;18549;42.286;22.688;2024-03-06T04:42:36;95516.19;;;7.99
32039;BMP280;18549;42.286;22.688;2024-03-06T04:45:03;95520.66;;;8.08
32039;BMP280;18549;42.286;22.688;2024-03-06T04:47:30;95519.44;;;8.15
32039;BMP280;18549;42.286;22.688;2024-03-06T04:49:56;95524.91;;;8.20
32039;BMP280;18549;42.286;22.688;2024-03-06T04:52:24;95524.91;;;8.20
32039;BMP280;18549;42.286;22.688;2024-03-06T04:54:51;95531.34;;;8.23
32039;BMP280;18549;42.286;22.688;2024-03-06T04:57:19;95523.25;;;8.21
32039;BMP280;18549;42.286;22.688;2024-03-06T04:59:45;95528.25;;;8.19
32039;BMP280;18549;42.286;22.688;2024-03-06T05:02:12;95525.09;;;8.17
32039;BMP280;18549;42.286;22.688;2024-03-06T05:04:39;95540.06;;;8.14
32039;BMP280;18549;42.286;22.688;2024-03-06T05:07:05;95543.50;;;8.12
32039;BMP280;18549;42.286;22.688;2024-03-06T05:09:32;95545.16;;;8.11
32039;BMP280;18549;42.286;22.688;2024-03-06T05:12:00;95552.06;;;8.05
32039;BMP280;18549;42.286;22.688;2024-03-06T05:14:28;95555.81;;;7.96
32039;BMP280;18549;42.286;22.688;2024-03-06T05:16:55;95561.91;;;7.91
32039;BMP280;18549;42.286;22.688;2024-03-06T05:19:22;95563.59;;;7.90
32039;BMP280;18549;42.286;22.688;2024-03-06T05:21:48;95566.22;;;7.88
32039;BMP280;18549;42.286;22.688;2024-03-06T05:24:15;95566.47;;;7.83
32039;BMP280;18549;42.286;22.688;2024-03-06T05:26:42;95572.34;;;7.81
32039;BMP280;18549;42.286;22.688;2024-03-06T05:29:08;95582.22;;;7.65
32039;BMP280;18549;42.286;22.688;2024-03-06T05:31:37;95576.75;;;7.60
32039;BMP280;18549;42.286;22.688;2024-03-06T05:34:03;95579.03;;;7.63
32039;BMP280;18549;42.286;22.688;2024-03-06T05:36:30;95579.59;;;7.68
32039;BMP280;18549;42.286;22.688;2024-03-06T05:38:57;95579.03;;;7.79
32039;BMP280;18549;42.286;22.688;2024-03-06T05:41:24;95581.09;;;7.86
32039;BMP280;18549;42.286;22.688;2024-03-06T05:43:51;95584.03;;;7.92
32039;BMP280;18549;42.286;22.688;2024-03-06T05:46:17;95585.53;;;7.95
32039;BMP280;18549;42.286;22.688;2024-03-06T05:48:46;95596.84;;;7.99
32039;BMP280;18549;42.286;22.688;2024-03-06T05:51:13;95592.53;;;8.02
32039;BMP280;18549;42.286;22.688;2024-03-06T05:53:40;95590.56;;;8.09
32039;BMP280;18549;42.286;22.688;2024-03-06T05:56:08;95594.47;;;8.13
32039;BMP280;18549;42.286;22.688;2024-03-06T05:58:34;95589.28;;;8.17
32039;BMP280;18549;42.286;22.688;2024-03-06T06:01:01;95597.31;;;8.21
32039;BMP280;18549;42.286;22.688;2024-03-06T06:03:28;95596.34;;;8.23
32039;BMP280;18549;42.286;22.688;2024-03-06T06:05:57;95592.12;;;8.25
32039;BMP280;18549;42.286;22.688;2024-03-06T06:08:24;95601.69;;;8.31
32039;BMP280;18549;42.286;22.688;2024-03-06T06:10:51;95599.81;;;8.34
32039;BMP280;18549;42.286;22.688;2024-03-06T06:13:18;95602.53;;;8.30
32039;BMP280;18549;42.286;22.688;2024-03-06T06:15:44;95603.19;;;8.33
32039;BMP280;18549;42.286;22.688;2024-03-06T06:18:11;95598.53;;;8.43
32039;BMP280;18549;42.286;22.688;2024-03-06T06:20:38;95594.66;;;8.53
32039;BMP280;18549;42.286;22.688;2024-03-06T06:23:06;95590.38;;;8.56
32039;BMP280;18549;42.286;22.688;2024-03-06T06:25:33;95598.38;;;8.59
32039;BMP280;18549;42.286;22.688;2024-03-06T06:28:00;95598.06;;;8.65
32039;BMP280;18549;42.286;22.688;2024-03-06T06:30:27;95592.12;;;8.68
32039;BMP280;18549;42.286;22.688;2024-03-06T06:32:54;95589.22;;;8.75
32039;BMP280;18549;42.286;22.688;2024-03-06T06:35:20;95600.44;;;8.81
32039;BMP280;18549;42.286;22.688;2024-03-06T06:37:47;95598.53;;;8.86
32039;BMP280;18549;42.286;22.688;2024-03-06T06:40:16;95591.62;;;8.90
32039;BMP280;18549;42.286;22.688;2024-03-06T06:42:48;95592.25;;;8.94
32039;BMP280;18549;42.286;22.688;2024-03-06T06:45:16;95586.78;;;9.03
32039;BMP280;18549;42.286;22.688;2024-03-06T06:47:43;95584.56;;;9.12
32039;BMP280;18549;42.286;22.688;2024-03-06T06:50:10;95590.75;;;9.19
32039;BMP280;18549;42.286;22.688;2024-03-06T06:52:37;95588.63;;;9.27
32039;BMP280;18549;42.286;22.688;2024-03-06T06:55:04;95584.03;;;9.35
32039;BMP280;18549;42.286;22.688;2024-03-06T06:57:33;95588.50;;;9.42
32039;BMP280;18549;42.286;22.688;2024-03-06T07:00:00;95581.78;;;9.58
32039;BMP280;18549;42.286;22.688;2024-03-06T07:02:27;95588.50;;;9.56
32039;BMP280;18549;42.286;22.688;2024-03-06T07:04:55;95596.75;;;9.43
32039;BMP280;18549;42.286;22.688;2024-03-06T07:07:22;95600.53;;;9.34
32039;BMP280;18549;42.286;22.688;2024-03-06T07:09:49;95594.63;;;9.37
32039;BMP280;18549;42.286;22.688;2024-03-06T07:12:15;95599.28;;;9.55
32039;BMP280;18549;42.286;22.688;2024-03-06T07:14:43;95596.34;;;9.62
32039;BMP280;18549;42.286;22.688;2024-03-06T07:17:10;95600.84;;;9.56
32039;BMP280;18549;42.286;22.688;2024-03-06T07:19:37;95601.97;;;9.38
32039;BMP280;18549;42.286;22.688;2024-03-06T07:22:04;95590.38;;;9.39
32039;BMP280;18549;42.286;22.688;2024-03-06T07:24:31;95593.28;;;9.59
32039;BMP280;18549;42.286;22.688;2024-03-06T07:26:58;95587.37;;;9.74
32039;BMP280;18549;42.286;22.688;2024-03-06T07:29:26;95593.97;;;9.61
32039;BMP280;18549;42.286;22.688;2024-03-06T07:31:55;95592.34;;;9.74
32039;BMP280;18549;42.286;22.688;2024-03-06T07:34:22;95593.66;;;9.93
32039;BMP280;18549;42.286;22.688;2024-03-06T07:36:49;95588.81;;;10.04
32039;BMP280;18549;42.286;22.688;2024-03-06T07:39:16;95590.31;;;10.06
32039;BMP280;18549;42.286;22.688;2024-03-06T07:41:42;95590.00;;;9.98
32039;BMP280;18549;42.286;22.688;2024-03-06T07:44:12;95586.41;;;10.16
32039;BMP280;18549;42.286;22.688;2024-03-06T07:46:39;95587.78;;;10.20
32039;BMP280;18549;42.286;22.688;2024-03-06T07:49:07;95583.50;;;10.10
32039;BMP280;18549;42.286;22.688;2024-03-06T07:51:34;95585.56;;;10.03
32039;BMP280;18549;42.286;22.688;2024-03-06T07:54:02;95579.41;;;9.96
32039;BMP280;18549;42.286;22.688;2024-03-06T07:56:30;95577.06;;;10.07
32039;BMP280;18549;42.286;22.688;2024-03-06T07:58:57;95583.78;;;10.05
32039;BMP280;18549;42.286;22.688;2024-03-06T08:01:23;95580.87;;;9.99
32039;BMP280;18549;42.286;22.688;2024-03-06T08:03:50;95584.34;;;9.96
32039;BMP280;18549;42.286;22.688;2024-03-06T08:06:19;95583.59;;;10.08
32039;BMP280;18549;42.286;22.688;2024-03-06T08:08:46;95582.03;;;10.20
32039;BMP280;18549;42.286;22.688;2024-03-06T08:11:13;95582.69;;;10.35
32039;BMP280;18549;42.286;22.688;2024-03-06T08:13:40;95577.66;;;10.49
32039;BMP280;18549;42.286;22.688;2024-03-06T08:16:07;95576.19;;;10.59
32039;BMP280;18549;42.286;22.688;2024-03-06T08:18:36;95580.16;;;10.74
32039;BMP280;18549;42.286;22.688;2024-03-06T08:21:03;95583.53;;;10.85
32039;BMP280;18549;42.286;22.688;2024-03-06T08:23:32;95581.94;;;10.96
32039;BMP280;18549;42.286;22.688;2024-03-06T08:25:58;95577.78;;;11.09
32039;BMP280;18549;42.286;22.688;2024-03-06T08:28:25;95584.28;;;11.22
32039;BMP280;18549;42.286;22.688;2024-03-06T08:30:52;95580.94;;;11.11
32039;BMP280;18549;42.286;22.688;2024-03-06T08:33:19;95577.56;;;11.12
32039;BMP280;18549;42.286;22.688;2024-03-06T08:35:48;95577.16;;;11.18
32039;BMP280;18549;42.286;22.688;2024-03-06T08:38:14;95573.88;;;11.18
32039;BMP280;18549;42.286;22.688;2024-03-06T08:40:44;95570.97;;;11.36
32039;BMP280;18549;42.286;22.688;2024-03-06T08:43:11;95564.00;;;11.41
32039;BMP280;18549;42.286;22.688;2024-03-06T08:45:38;95568.62;;;11.47
32039;BMP280;18549;42.286;22.688;2024-03-06T08:48:05;95566.91;;;11.59
32039;BMP280;18549;42.286;22.688;2024-03-06T08:50:33;95559.41;;;11.72
32039;BMP280;18549;42.286;22.688;2024-03-06T08:52:59;95562.12;;;11.80
32039;BMP280;18549;42.286;22.688;2024-03-06T08:55:29;95561.12;;;11.82
32039;BMP280;18549;42.286;22.688;2024-03-06T08:57:57;95560.62;;;11.89
32039;BMP280;18549;42.286;22.688;2024-03-06T09:00:26;95559.69;;;12.03
32039;BMP280;18549;42.286;22.688;2024-03-06T09:02:53;95552.31;;;12.01
32039;BMP280;18549;42.286;22.688;2024-03-06T09:05:20;95555.53;;;12.14
32039;BMP280;18549;42.286;22.688;2024-03-06T09:07:47;95550.00;;;12.11
32039;BMP280;18549;42.286;22.688;2024-03-06T09:10:14;95540.34;;;12.29
32039;BMP280;18549;42.286;22.688;2024-03-06T09:12:41;95538.91;;;12.38
32039;BMP280;18549;42.286;22.688;2024-03-06T09:15:09;95535.31;;;12.52
32039;BMP280;18549;42.286;22.688;2024-03-06T09:17:37;95535.37;;;12.74
32039;BMP280;18549;42.286;22.688;2024-03-06T09:20:04;95529.47;;;12.75
32039;BMP280;18549;42.286;22.688;2024-03-06T09:22:35;95526.81;;;12.78
32039;BMP280;18549;42.286;22.688;2024-03-06T09:25:03;95522.50;;;12.80
32039;BMP280;18549;42.286;22.688;2024-03-06T09:27:30;95523.41;;;12.79
32039;BMP280;18549;42.286;22.688;2024-03-06T09:29:57;95517.28;;;12.94
32039;BMP280;18549;42.286;22.688;2024-03-06T09:32:25;95517.28;;;12.94
32039;BMP280;18549;42.286;22.688;2024-03-06T09:34:53;95512.69;;;12.89
32039;BMP280;18549;42.286;22.688;2024-03-06T09:37:19;95510.63;;;13.05
32039;BMP280;18549;42.286;22.688;2024-03-06T09:39:46;95509.16;;;13.14
32039;BMP280;18549;42.286;22.688;2024-03-06T09:42:13;95496.28;;;13.19
32039;BMP280;18549;42.286;22.688;2024-03-06T09:44:40;95495.69;;;13.27
32039;BMP280;18549;42.286;22.688;2024-03-06T09:47:11;95500.06;;;13.45
32039;BMP280;18549;42.286;22.688;2024-03-06T09:49:40;95495.63;;;13.59
32039;BMP280;18549;42.286;22.688;2024-03-06T09:52:08;95493.56;;;13.64
32039;BMP280;18549;42.286;22.688;2024-03-06T09:54:35;95488.00;;;13.72
32039;BMP280;18549;42.286;22.688;2024-03-06T09:57:04;95483.91;;;13.82
32039;BMP280;18549;42.286;22.688;2024-03-06T09:59:31;95487.13;;;14.04
32039;BMP280;18549;42.286;22.688;2024-03-06T10:01:58;95486.59;;;14.20
32039;BMP280;18549;42.286;22.688;2024-03-06T10:04:32;95484.56;;;14.35
32039;BMP280;18549;42.286;22.688;2024-03-06T10:07:04;95479.63;;;14.44
32039;BMP280;18549;42.286;22.688;2024-03-06T10:09:33;95475.16;;;14.58
32039;BMP280;18549;42.286;22.688;2024-03-06T10:12:00;95474.81;;;14.72
32039;BMP280;18549;42.286;22.688;2024-03-06T10:14:27;95476.66;;;14.70
32039;BMP280;18549;42.286;22.688;2024-03-06T10:16:56;95467.25;;;14.63
32039;BMP280;18549;42.286;22.688;2024-03-06T10:19:25;95462.97;;;14.74
32039;BMP280;18549;42.286;22.688;2024-03-06T10:21:56;95459.00;;;14.92
32039;BMP280;18549;42.286;22.688;2024-03-06T10:24:26;95455.72;;;14.91
32039;BMP280;18549;42.286;22.688;2024-03-06T10:26:56;95454.28;;;14.98
32039;BMP280;18549;42.286;22.688;2024-03-06T10:29:24;95449.75;;;14.83
32039;BMP280;18549;42.286;22.688;2024-03-06T10:31:52;95444.16;;;14.90
32039;BMP280;18549;42.286;22.688;2024-03-06T10:34:20;95444.53;;;15.16
32039;BMP280;18549;42.286;22.688;2024-03-06T10:36:54;95439.28;;;15.18
32039;BMP280;18549;42.286;22.688;2024-03-06T10:39:22;95429.31;;;15.37
32039;BMP280;18549;42.286;22.688;2024-03-06T10:41:52;95427.37;;;15.59
32039;BMP280;18549;42.286;22.688;2024-03-06T10:44:22;95424.75;;;15.80
32039;BMP280;18549;42.286;22.688;2024-03-06T10:46:55;95422.09;;;15.90
32039;BMP280;18549;42.286;22.688;2024-03-06T10:49:24;95420.37;;;16.10
32039;BMP280;18549;42.286;22.688;2024-03-06T10:51:54;95411.06;;;16.02
32039;BMP280;18549;42.286;22.688;2024-03-06T10:54:26;95408.31;;;15.86
32039;BMP280;18549;42.286;22.688;2024-03-06T10:56:55;95410.66;;;15.88
32039;BMP280;18549;42.286;22.688;2024-03-06T10:59:25;95410.88;;;16.13
32039;BMP280;18549;42.286;22.688;2024-03-06T11:01:53;95406.44;;;16.17
32039;BMP280;18549;42.286;22.688;2024-03-06T11:04:21;95403.00;;;16.08
32039;BMP280;18549;42.286;22.688;2024-03-06T11:06:49;95391.59;;;15.87
32039;BMP280;18549;42.286;22.688;2024-03-06T11:09:16;95397.50;;;15.67
32039;BMP280;18549;42.286;22.688;2024-03-06T11:11:51;95393.06;;;15.52
32039;BMP280;18549;42.286;22.688;2024-03-06T11:14:21;95380.81;;;15.40
32039;BMP280;18549;42.286;22.688;2024-03-06T11:17:03;95381.47;;;15.42
32039;BMP280;18549;42.286;22.688;2024-03-06T11:19:30;95374.50;;;15.36
32039;BMP280;18549;42.286;22.688;2024-03-06T11:21:57;95377.53;;;15.30
32039;BMP280;18549;42.286;22.688;2024-03-06T11:24:32;95370.12;;;15.10
32039;BMP280;18549;42.286;22.688;2024-03-06T11:27:00;95375.37;;;15.07
32039;BMP280;18549;42.286;22.688;2024-03-06T11:29:32;95371.94;;;15.08
32039;BMP280;18549;42.286;22.688;2024-03-06T11:32:16;95368.97;;;15.14
32039;BMP280;18549;42.286;22.688;2024-03-06T11:34:43;95367.25;;;15.14
32039;BMP280;18549;42.286;22.688;2024-03-06T11:37:10;95362.38;;;15.13
32039;BMP280;18549;42.286;22.688;2024-03-06T11:39:38;95353.06;;;15.15
32039;BMP280;18549;42.286;22.688;2024-03-06T11:42:06;95351.59;;;15.03
32039;BMP280;18549;42.286;22.688;2024-03-06T11:44:35;95355.25;;;15.08
32039;BMP280;18549;42.286;22.688;2024-03-06T11:47:03;95349.91;;;15.13
32039;BMP280;18549;42.286;22.688;2024-03-06T11:49:31;95354.34;;;15.09
32039;BMP280;18549;42.286;22.688;2024-03-06T11:52:01;95350.47;;;15.16
32039;BMP280;18549;42.286;22.688;2024-03-06T11:54:29;95353.34;;;15.30
32039;BMP280;18549;42.286;22.688;2024-03-06T11:56:58;95352.06;;;15.45
32039;BMP280;18549;42.286;22.688;2024-03-06T11:59:26;95348.34;;;15.49
32039;BMP280;18549;42.286;22.688;2024-03-06T12:01:55;95337.84;;;15.55
32039;BMP280;18549;42.286;22.688;2024-03-06T12:04:22;95331.25;;;15.54
32039;BMP280;18549;42.286;22.688;2024-03-06T12:06:49;95338.13;;;15.52
32039;BMP280;18549;42.286;22.688;2024-03-06T12:09:17;95333.62;;;15.46
32039;BMP280;18549;42.286;22.688;2024-03-06T12:11:43;95335.59;;;15.43
32039;BMP280;18549;42.286;22.688;2024-03-06T12:14:14;95335.75;;;15.41
32039;BMP280;18549;42.286;22.688;2024-03-06T12:16:43;95328.37;;;15.40
32039;BMP280;18549;42.286;22.688;2024-03-06T12:19:11;95336.03;;;15.38
32039;BMP280;18549;42.286;22.688;2024-03-06T12:21:39;95339.16;;;15.31
32039;BMP280;18549;42.286;22.688;2024-03-06T12:24:07;95342.03;;;15.26
32039;BMP280;18549;42.286;22.688;2024-03-06T12:26:35;95339.81;;;15.23
32039;BMP280;18549;42.286;22.688;2024-03-06T12:29:07;95339.03;;;15.14
32039;BMP280;18549;42.286;22.688;2024-03-06T12:31:35;95340.28;;;15.08
32039;BMP280;18549;42.286;22.688;2024-03-06T12:34:02;95343.16;;;14.94
32039;BMP280;18549;42.286;22.688;2024-03-06T12:36:31;95355.34;;;14.79
32039;BMP280;18549;42.286;22.688;2024-03-06T12:39:02;95361.50;;;14.65
32039;BMP280;18549;42.286;22.688;2024-03-06T12:41:38;95363.41;;;14.52
32039;BMP280;18549;42.286;22.688;2024-03-06T12:44:07;95367.31;;;14.46
32039;BMP280;18549;42.286;22.688;2024-03-06T12:46:34;95367.28;;;14.36
32039;BMP280;18549;42.286;22.688;2024-03-06T12:49:00;95372.22;;;14.27
32039;BMP280;18549;42.286;22.688;2024-03-06T12:51:27;95374.81;;;14.25
32039;BMP280;18549;42.286;22.688;2024-03-06T12:53:55;95367.84;;;14.19
32039;BMP280;18549;42.286;22.688;2024-03-06T12:56:22;95379.28;;;14.22
32039;BMP280;18549;42.286;22.688;2024-03-06T12:58:50;95372.22;;;14.27
32039;BMP280;18549;42.286;22.688;2024-03-06T13:01:20;95374.72;;;14.27
32039;BMP280;18549;42.286;22.688;2024-03-06T13:03:48;95379.69;;;14.27
32039;BMP280;18549;42.286;22.688;2024-03-06T13:06:15;95375.13;;;14.32
32039;BMP280;18549;42.286;22.688;2024-03-06T13:08:42;95369.63;;;14.38
32039;BMP280;18549;42.286;22.688;2024-03-06T13:11:10;95367.31;;;14.46
32039;BMP280;18549;42.286;22.688;2024-03-06T13:13:37;95372.19;;;14.47
32039;BMP280;18549;42.286;22.688;2024-03-06T13:16:04;95381.13;;;14.50
32039;BMP280;18549;42.286;22.688;2024-03-06T13:18:31;95370.81;;;14.63
32039;BMP280;18549;42.286;22.688;2024-03-06T13:20:58;95369.00;;;14.75
32039;BMP280;18549;42.286;22.688;2024-03-06T13:23:26;95380.31;;;14.88
32039;BMP280;18549;42.286;22.688;2024-03-06T13:25:52;95373.63;;;14.88
32039;BMP280;18549;42.286;22.688;2024-03-06T13:28:21;95368.75;;;14.87
32039;BMP280;18549;42.286;22.688;2024-03-06T13:30:47;95362.59;;;14.91
32039;BMP280;18549;42.286;22.688;2024-03-06T13:33:15;95361.44;;;14.95
32039;BMP280;18549;42.286;22.688;2024-03-06T13:35:42;95356.84;;;15.00
32039;BMP280;18549;42.286;22.688;2024-03-06T13:38:09;95356.97;;;15.08
32039;BMP280;18549;42.286;22.688;2024-03-06T13:40:36;95355.72;;;15.13
32039;BMP280;18549;42.286;22.688;2024-03-06T13:43:03;95361.22;;;15.17
32039;BMP280;18549;42.286;22.688;2024-03-06T13:45:33;95355.19;;;15.19
32039;BMP280;18549;42.286;22.688;2024-03-06T13:48:00;95353.47;;;15.19
32039;BMP280;18549;42.286;22.688;2024-03-06T13:50:26;95352.56;;;15.20
32039;BMP280;18549;42.286;22.688;2024-03-06T13:52:54;95356.22;;;15.17
32039;BMP280;18549;42.286;22.688;2024-03-06T13:55:21;95347.19;;;15.16
32039;BMP280;18549;42.286;22.688;2024-03-06T13:57:48;95349.91;;;15.13
32039;BMP280;18549;42.286;22.688;2024-03-06T14:00:16;95342.56;;;15.11
32039;BMP280;18549;42.286;22.688;2024-03-06T14:02:48;95339.50;;;15.08